createdAt,value
2018-05-31T00:00:18.903Z,99753
2018-05-31T00:02:49.099Z,99754
2018-05-31T00:05:19.469Z,99752
2018-05-31T00:07:50.083Z,99751
2018-05-31T00:10:19.962Z,99754
2018-05-31T00:12:50.789Z,99752
2018-05-31T00:15:20.888Z,99749
2018-05-31T00:17:51.034Z,99747
2018-05-31T00:20:21.364Z,99748
2018-05-31T00:22:51.917Z,99747
2018-05-31T00:25:22.155Z,99746
2018-05-31T00:27:52.306Z,99740
2018-05-31T00:30:22.795Z,99740
2018-05-31T00:33:06.000Z,99739
2018-05-31T00:35:49.213Z,99742
2018-05-31T00:38:19.704Z,99736
2018-05-31T00:40:50.149Z,99732
2018-05-31T00:43:20.129Z,99734
2018-05-31T00:45:50.864Z,99731
2018-05-31T00:48:20.710Z,99734
2018-05-31T00:50:51.061Z,99727
2018-05-31T00:53:21.374Z,99724
2018-05-31T00:56:03.357Z,99726
2018-05-31T00:58:33.689Z,99730
2018-05-31T01:01:04.024Z,99728
2018-05-31T01:03:34.686Z,99733
2018-05-31T01:06:05.124Z,99733
2018-05-31T01:08:35.250Z,99723
2018-05-31T01:11:05.444Z,99731
2018-05-31T01:13:35.785Z,99734
2018-05-31T01:16:05.819Z,99727
2018-05-31T01:18:36.013Z,99733
2018-05-31T01:21:06.225Z,99723
2018-05-31T01:23:37.102Z,99721
2018-05-31T01:26:07.710Z,99730
2018-05-31T01:28:38.307Z,99726
2018-05-31T01:31:08.892Z,99728
2018-05-31T01:33:39.118Z,99726
2018-05-31T01:36:09.689Z,99726
2018-05-31T01:38:40.038Z,99725
2018-05-31T01:41:10.725Z,99720
2018-05-31T01:43:41.381Z,99721
2018-05-31T01:46:11.328Z,99716
2018-05-31T01:48:41.932Z,99708
2018-05-31T01:51:12.632Z,99702
2018-05-31T01:53:44.137Z,99706
2018-05-31T01:56:14.499Z,99712
2018-05-31T01:58:45.188Z,99709
2018-05-31T02:01:15.228Z,99706
2018-05-31T02:03:45.460Z,99704
2018-05-31T02:06:15.722Z,99699
2018-05-31T02:08:46.117Z,99704
2018-05-31T02:11:16.291Z,99711
2018-05-31T02:13:46.687Z,99711
2018-05-31T02:16:17.041Z,99710
2018-05-31T02:18:47.476Z,99715
2018-05-31T02:21:18.005Z,99725
2018-05-31T02:23:48.300Z,99724
2018-05-31T02:26:19.031Z,99717
2018-05-31T02:28:49.265Z,99722
2018-05-31T02:31:19.171Z,99730
2018-05-31T02:33:49.213Z,99730
2018-05-31T02:36:19.555Z,99726
2018-05-31T02:38:49.964Z,99732
2018-05-31T02:41:20.463Z,99730
2018-05-31T02:43:50.793Z,99729
2018-05-31T02:46:20.699Z,99736
2018-05-31T02:48:50.873Z,99739
2018-05-31T02:51:21.578Z,99737
2018-05-31T02:53:51.922Z,99735
2018-05-31T02:56:21.784Z,99728
2018-05-31T02:58:52.231Z,99733
2018-05-31T03:01:22.942Z,99734
2018-05-31T03:03:53.623Z,99729
2018-05-31T03:06:23.960Z,99731
2018-05-31T03:08:54.227Z,99731
2018-05-31T03:11:25.440Z,99729
2018-05-31T03:13:55.689Z,99723
2018-05-31T03:16:25.965Z,99718
2018-05-31T03:18:56.567Z,99726
2018-05-31T03:21:26.789Z,99738
2018-05-31T03:23:57.235Z,99739
2018-05-31T03:26:27.074Z,99742
2018-05-31T03:28:57.579Z,99742
2018-05-31T03:31:28.066Z,99740
2018-05-31T03:33:58.414Z,99743
2018-05-31T03:36:28.233Z,99745
2018-05-31T03:38:58.701Z,99746
2018-05-31T03:41:28.661Z,99751
2018-05-31T03:43:59.284Z,99748
2018-05-31T03:46:29.202Z,99747
2018-05-31T03:48:59.989Z,99751
2018-05-31T03:51:29.978Z,99755
2018-05-31T03:54:00.497Z,99752
2018-05-31T03:56:31.137Z,99739
2018-05-31T03:59:01.654Z,99744
2018-05-31T04:01:31.761Z,99751
2018-05-31T04:04:03.004Z,99745
2018-05-31T04:06:33.707Z,99743
2018-05-31T04:09:03.791Z,99746
2018-05-31T04:11:34.067Z,99745
2018-05-31T04:14:04.439Z,99747
2018-05-31T04:16:34.313Z,99741
2018-05-31T04:19:04.441Z,99739
2018-05-31T04:21:34.726Z,99741
2018-05-31T04:24:05.457Z,99739
2018-05-31T04:26:35.451Z,99727
2018-05-31T04:29:06.212Z,99726
2018-05-31T04:31:36.771Z,99729
2018-05-31T04:34:07.061Z,99727
2018-05-31T04:36:37.565Z,99729
2018-05-31T04:39:08.176Z,99729
2018-05-31T04:41:38.680Z,99729
2018-05-31T04:44:09.150Z,99732
2018-05-31T04:46:39.408Z,99730
2018-05-31T04:49:09.909Z,99735
2018-05-31T04:51:40.429Z,99737
2018-05-31T04:54:10.458Z,99735
2018-05-31T04:56:41.505Z,99736
2018-05-31T04:59:11.800Z,99737
2018-05-31T05:01:42.490Z,99743
2018-05-31T05:04:13.032Z,99741
2018-05-31T05:06:43.675Z,99741
2018-05-31T05:09:14.017Z,99751
2018-05-31T05:11:44.472Z,99752
2018-05-31T05:14:15.220Z,99754
2018-05-31T05:16:45.625Z,99752
2018-05-31T05:19:15.603Z,99752
2018-05-31T05:21:46.509Z,99753
2018-05-31T05:24:16.861Z,99757
2018-05-31T05:26:47.372Z,99756
2018-05-31T05:29:17.751Z,99766
2018-05-31T05:31:48.326Z,99761
2018-05-31T05:34:18.147Z,99764
2018-05-31T05:36:48.457Z,99763
2018-05-31T05:39:18.962Z,99760
2018-05-31T05:41:49.516Z,99757
2018-05-31T05:44:19.956Z,99756
2018-05-31T05:46:50.219Z,99755
2018-05-31T05:49:20.341Z,99755
2018-05-31T05:51:50.814Z,99755
2018-05-31T05:54:21.252Z,99753
2018-05-31T05:56:51.814Z,99751
2018-05-31T05:59:22.115Z,99751
2018-05-31T06:01:52.252Z,99759
2018-05-31T06:04:22.654Z,99763
2018-05-31T06:06:52.881Z,99758
2018-05-31T06:09:23.239Z,99755
2018-05-31T06:11:54.024Z,99753
2018-05-31T06:14:23.820Z,99748
2018-05-31T06:16:53.636Z,99748
2018-05-31T06:19:24.113Z,99750
2018-05-31T06:21:54.381Z,99752
2018-05-31T06:24:25.032Z,99745
2018-05-31T06:26:55.461Z,99745
2018-05-31T06:29:25.726Z,99745
2018-05-31T06:31:56.057Z,99742
2018-05-31T06:34:26.245Z,99744
2018-05-31T06:36:56.467Z,99743
2018-05-31T06:39:26.996Z,99744
2018-05-31T06:41:56.804Z,99734
2018-05-31T06:44:27.441Z,99735
2018-05-31T06:46:57.912Z,99734
2018-05-31T06:49:28.430Z,99734
2018-05-31T06:51:58.705Z,99730
2018-05-31T06:54:29.581Z,99732
2018-05-31T06:57:03.237Z,99725
2018-05-31T06:59:33.747Z,99728
2018-05-31T07:02:03.976Z,99731
2018-05-31T07:04:33.976Z,99732
2018-05-31T07:07:04.473Z,99729
2018-05-31T07:09:35.069Z,99736
2018-05-31T07:12:05.684Z,99732
2018-05-31T07:14:36.040Z,99734
2018-05-31T07:17:06.601Z,99732
2018-05-31T07:19:36.509Z,99731
2018-05-31T07:22:06.411Z,99731
2018-05-31T07:24:36.299Z,99726
2018-05-31T07:27:06.428Z,99739
2018-05-31T07:29:36.748Z,99733
2018-05-31T07:32:06.945Z,99735
2018-05-31T07:34:37.473Z,99732
2018-05-31T07:37:07.897Z,99726
2018-05-31T07:39:38.463Z,99731
2018-05-31T07:42:08.758Z,99728
2018-05-31T07:44:39.210Z,99725
2018-05-31T07:47:09.160Z,99726
2018-05-31T07:49:39.693Z,99728
2018-05-31T07:52:10.159Z,99718
2018-05-31T07:54:40.175Z,99716
2018-05-31T07:57:10.713Z,99710
2018-05-31T07:59:41.159Z,99711
2018-05-31T08:02:11.206Z,99714
2018-05-31T08:04:41.432Z,99702
2018-05-31T08:07:12.338Z,99704
2018-05-31T08:09:42.192Z,99709
2018-05-31T08:12:12.915Z,99708
2018-05-31T08:14:43.034Z,99700
2018-05-31T08:17:13.669Z,99689
2018-05-31T08:19:44.210Z,99687
2018-05-31T08:22:14.831Z,99682
2018-05-31T08:24:45.004Z,99684
2018-05-31T08:27:15.099Z,99682
2018-05-31T08:29:45.623Z,99677
2018-05-31T08:32:15.899Z,99674
2018-05-31T08:34:46.379Z,99670
2018-05-31T08:37:16.797Z,99665
2018-05-31T08:39:46.629Z,99667
2018-05-31T08:42:17.084Z,99663
2018-05-31T08:44:47.653Z,99662
2018-05-31T08:47:18.590Z,99657
2018-05-31T08:49:49.039Z,99655
2018-05-31T08:52:18.903Z,99650
2018-05-31T08:54:48.944Z,99655
2018-05-31T08:57:18.741Z,99654
2018-05-31T08:59:48.673Z,99653
2018-05-31T09:02:18.487Z,99653
2018-05-31T09:04:49.426Z,99647
2018-05-31T09:07:19.251Z,99649
2018-05-31T09:09:49.182Z,99646
2018-05-31T09:12:19.002Z,99648
2018-05-31T09:14:49.110Z,99645
2018-05-31T09:17:18.925Z,99645
2018-05-31T09:19:48.741Z,99644
2018-05-31T09:22:18.546Z,99644
2018-05-31T09:24:48.449Z,99641
2018-05-31T09:27:18.173Z,99638
2018-05-31T09:29:47.979Z,99637
2018-05-31T09:32:17.876Z,99631
2018-05-31T09:34:47.724Z,99638
2018-05-31T09:37:17.533Z,99634
2018-05-31T09:39:47.476Z,99620
2018-05-31T09:42:17.302Z,99620
2018-05-31T09:44:47.194Z,99615
2018-05-31T09:47:16.916Z,99625
2018-05-31T09:49:46.857Z,99622
2018-05-31T09:52:16.676Z,99622
2018-05-31T09:54:46.576Z,99611
2018-05-31T09:57:16.406Z,99599
2018-05-31T09:59:46.144Z,99601
2018-05-31T10:02:15.980Z,99592
2018-05-31T10:04:45.793Z,99584
2018-05-31T10:07:15.607Z,99590
2018-05-31T10:09:45.330Z,99591
2018-05-31T10:12:15.154Z,99592
2018-05-31T10:14:44.986Z,99587
2018-05-31T10:17:14.764Z,99588
2018-05-31T10:19:44.576Z,99584
2018-05-31T10:22:14.433Z,99587
2018-05-31T10:24:44.316Z,99592
2018-05-31T10:27:17.849Z,99591
2018-05-31T10:29:47.688Z,99596
2018-05-31T10:32:17.426Z,99582
2018-05-31T10:34:47.435Z,99582
2018-05-31T10:37:17.325Z,99581
2018-05-31T10:39:59.778Z,99581
2018-05-31T10:42:42.352Z,99570
2018-05-31T10:45:12.123Z,99571
2018-05-31T10:47:41.910Z,99563
2018-05-31T10:50:11.685Z,99559
2018-05-31T10:52:41.485Z,99566
2018-05-31T10:55:11.294Z,99567
2018-05-31T10:57:41.163Z,99564
2018-05-31T11:00:11.039Z,99556
2018-05-31T11:02:40.833Z,99559
2018-05-31T11:05:10.645Z,99554
2018-05-31T11:07:40.427Z,99557
2018-05-31T11:10:10.291Z,99555
2018-05-31T11:12:40.678Z,99554
2018-05-31T11:15:10.593Z,99559
2018-05-31T11:17:40.338Z,99558
2018-05-31T11:20:10.247Z,99554
2018-05-31T11:22:40.022Z,99550
2018-05-31T11:25:09.766Z,99548
2018-05-31T11:27:39.529Z,99551
2018-05-31T11:30:09.355Z,99543
2018-05-31T11:32:39.154Z,99539
2018-05-31T11:35:08.887Z,99549
2018-05-31T11:37:38.658Z,99551
2018-05-31T11:40:08.540Z,99552
2018-05-31T11:42:38.326Z,99549
2018-05-31T11:45:08.524Z,99538
2018-05-31T11:47:38.262Z,99546
2018-05-31T11:50:08.092Z,99533
2018-05-31T11:52:37.876Z,99535
2018-05-31T11:55:07.672Z,99528
2018-05-31T11:57:37.470Z,99533
2018-05-31T12:00:07.254Z,99518
2018-05-31T12:02:37.089Z,99525
2018-05-31T12:05:06.872Z,99520
2018-05-31T12:07:36.633Z,99518
2018-05-31T12:10:06.446Z,99512
2018-05-31T12:12:36.225Z,99511
2018-05-31T12:15:06.063Z,99509
2018-05-31T12:17:35.842Z,99506
2018-05-31T12:20:05.612Z,99499
2018-05-31T12:22:35.530Z,99496
2018-05-31T12:25:05.276Z,99498
2018-05-31T12:27:35.045Z,99493
2018-05-31T12:30:04.882Z,99495
2018-05-31T12:32:34.633Z,99492
2018-05-31T12:35:04.380Z,99488
2018-05-31T12:37:34.199Z,99489
2018-05-31T12:40:04.130Z,99482
2018-05-31T12:42:33.900Z,99476
2018-05-31T12:45:16.214Z,99474
2018-05-31T12:47:58.808Z,99477
2018-05-31T12:50:28.974Z,99471
2018-05-31T12:52:58.774Z,99469
2018-05-31T12:55:28.669Z,99467
2018-05-31T12:57:58.432Z,99463
2018-05-31T13:00:28.210Z,99453
2018-05-31T13:02:58.024Z,99449
2018-05-31T13:05:27.781Z,99444
2018-05-31T13:07:57.523Z,99446
2018-05-31T13:10:27.265Z,99450
2018-05-31T13:12:57.040Z,99451
2018-05-31T13:15:26.864Z,99450
2018-05-31T13:17:56.605Z,99444
2018-05-31T13:20:26.450Z,99434
2018-05-31T13:22:56.266Z,99427
2018-05-31T13:25:26.020Z,99429
2018-05-31T13:27:55.931Z,99431
2018-05-31T13:30:25.661Z,99431
2018-05-31T13:32:55.496Z,99425
2018-05-31T13:35:25.472Z,99421
2018-05-31T13:37:55.288Z,99412
2018-05-31T13:40:25.106Z,99408
2018-05-31T13:42:54.939Z,99408
2018-05-31T13:45:24.750Z,99408
2018-05-31T13:47:54.483Z,99401
2018-05-31T13:50:24.216Z,99401
2018-05-31T13:52:54.019Z,99405
2018-05-31T13:55:23.809Z,99406
2018-05-31T13:57:53.639Z,99409
2018-05-31T14:00:23.413Z,99412
2018-05-31T14:02:53.214Z,99400
2018-05-31T14:05:23.001Z,99399
2018-05-31T14:07:52.745Z,99393
2018-05-31T14:13:04.437Z,99395
2018-05-31T14:15:34.260Z,99391
2018-05-31T14:18:04.086Z,99390
2018-05-31T14:20:33.941Z,99384
2018-05-31T14:23:03.740Z,99385
2018-05-31T14:25:33.478Z,99380
2018-05-31T14:28:03.275Z,99376
2018-05-31T14:30:33.209Z,99381
2018-05-31T14:33:03.056Z,99376
2018-05-31T14:35:32.864Z,99373
2018-05-31T14:38:02.632Z,99367
2018-05-31T14:40:32.439Z,99366
2018-05-31T14:43:02.553Z,99355
2018-05-31T14:45:32.309Z,99351
2018-05-31T14:48:02.056Z,99352
2018-05-31T14:50:31.903Z,99347
2018-05-31T14:53:01.716Z,99344
2018-05-31T14:55:31.499Z,99347
2018-05-31T14:58:01.316Z,99344
2018-05-31T15:00:31.126Z,99340
2018-05-31T15:03:00.958Z,99343
2018-05-31T15:05:30.721Z,99346
2018-05-31T15:08:00.447Z,99346
2018-05-31T15:10:30.299Z,99346
2018-05-31T15:13:00.147Z,99342
2018-05-31T15:15:29.971Z,99343
2018-05-31T15:17:59.787Z,99345
2018-05-31T15:20:29.599Z,99338
2018-05-31T15:22:59.438Z,99334
2018-05-31T15:25:29.191Z,99340
2018-05-31T15:27:58.940Z,99344
2018-05-31T15:30:28.799Z,99335
2018-05-31T15:32:58.618Z,99345
2018-05-31T15:35:28.446Z,99341
2018-05-31T15:37:58.268Z,99340
2018-05-31T15:40:28.137Z,99336
2018-05-31T15:42:57.889Z,99333
2018-05-31T15:45:27.655Z,99335
2018-05-31T15:47:57.413Z,99334
2018-05-31T15:50:27.226Z,99335
2018-05-31T15:52:57.028Z,99335
2018-05-31T15:55:26.894Z,99328
2018-05-31T15:57:56.707Z,99327
2018-05-31T16:00:26.485Z,99334
2018-05-31T16:02:56.237Z,99327
2018-05-31T16:05:25.994Z,99328
2018-05-31T16:07:55.752Z,99323
2018-05-31T16:10:25.529Z,99318
2018-05-31T16:12:55.336Z,99321
2018-05-31T16:15:25.089Z,99319
2018-05-31T16:17:54.943Z,99321
2018-05-31T16:20:24.723Z,99320
2018-05-31T16:22:54.493Z,99323
2018-05-31T16:25:24.271Z,99326
2018-05-31T16:27:54.055Z,99325
2018-05-31T16:30:23.829Z,99328
2018-05-31T16:32:53.582Z,99326
2018-05-31T16:35:23.357Z,99326
2018-05-31T16:37:53.206Z,99325
2018-05-31T16:40:23.060Z,99321
2018-05-31T16:42:53.027Z,99323
2018-05-31T16:45:22.885Z,99326
2018-05-31T16:47:52.635Z,99323
2018-05-31T16:50:22.456Z,99323
2018-05-31T16:52:52.322Z,99327
2018-05-31T16:55:22.154Z,99328
2018-05-31T16:57:51.939Z,99341
2018-05-31T17:00:21.780Z,99337
2018-05-31T17:02:51.934Z,99342
2018-05-31T17:05:21.858Z,99338
2018-05-31T17:07:51.619Z,99340
2018-05-31T17:10:21.420Z,99340
2018-05-31T17:12:51.253Z,99340
2018-05-31T17:15:21.019Z,99348
2018-05-31T17:17:50.831Z,99347
2018-05-31T17:20:20.637Z,99351
2018-05-31T17:22:50.469Z,99352
2018-05-31T17:25:20.260Z,99348
2018-05-31T17:27:49.995Z,99350
2018-05-31T17:30:19.786Z,99351
2018-05-31T17:32:49.565Z,99356
2018-05-31T17:35:19.359Z,99355
2018-05-31T17:37:49.120Z,99357
2018-05-31T17:40:18.878Z,99366
2018-05-31T17:42:48.712Z,99370
2018-05-31T17:45:18.455Z,99377
2018-05-31T17:47:48.257Z,99382
2018-05-31T17:50:18.074Z,99383
2018-05-31T17:52:47.896Z,99378
2018-05-31T17:55:17.729Z,99384
2018-05-31T17:57:47.527Z,99385
2018-05-31T18:00:17.321Z,99390
2018-05-31T18:02:47.144Z,99393
2018-05-31T18:05:16.891Z,99400
2018-05-31T18:07:46.678Z,99412
2018-05-31T18:10:16.440Z,99413
2018-05-31T18:12:46.233Z,99418
2018-05-31T18:15:16.103Z,99424
2018-05-31T18:17:45.864Z,99428
2018-05-31T18:20:15.756Z,99432
2018-05-31T18:22:45.546Z,99436
2018-05-31T18:25:15.338Z,99444
2018-05-31T18:27:45.056Z,99446
2018-05-31T18:30:14.874Z,99451
2018-05-31T18:32:44.655Z,99456
2018-05-31T18:35:14.487Z,99461
2018-05-31T18:37:44.309Z,99460
2018-05-31T18:40:14.065Z,99460
2018-05-31T18:42:43.869Z,99463
2018-05-31T18:45:13.651Z,99474
2018-05-31T18:47:43.425Z,99472
2018-05-31T18:50:13.227Z,99478
2018-05-31T18:52:43.034Z,99479
2018-05-31T18:55:12.806Z,99481
2018-05-31T18:57:42.672Z,99484
2018-05-31T19:00:12.485Z,99489
2018-05-31T19:02:42.312Z,99498
2018-05-31T19:05:12.059Z,99498
2018-05-31T19:07:41.800Z,99504
2018-05-31T19:10:11.631Z,99511
2018-05-31T19:12:47.075Z,99512
2018-05-31T19:15:21.634Z,99514
2018-05-31T19:17:46.722Z,99513
2018-05-31T19:20:16.555Z,99509
2018-05-31T19:22:46.377Z,99511
2018-05-31T19:25:20.956Z,99521
2018-05-31T19:27:50.666Z,99519
2018-05-31T19:30:26.216Z,99527
2018-05-31T19:32:56.050Z,99528
2018-05-31T19:35:31.708Z,99534
2018-05-31T19:38:01.512Z,99531
2018-05-31T19:40:31.275Z,99537
2018-05-31T19:43:06.559Z,99534
2018-05-31T19:45:36.333Z,99539
2018-05-31T19:48:07.032Z,99539
2018-05-31T19:50:36.821Z,99526
2018-05-31T19:53:12.416Z,99530
2018-05-31T19:55:42.216Z,99534
2018-05-31T19:58:17.755Z,99532
2018-05-31T20:00:53.372Z,99545
2018-05-31T20:03:28.775Z,99546
2018-05-31T20:05:58.585Z,99554
2018-05-31T20:08:28.347Z,99551
2018-05-31T20:10:58.195Z,99548
2018-05-31T20:13:28.003Z,99555
2018-05-31T20:15:57.766Z,99558
2018-05-31T20:18:27.581Z,99555
2018-05-31T20:20:57.398Z,99554
2018-05-31T20:23:27.289Z,99560
2018-05-31T20:25:57.016Z,99559
2018-05-31T20:28:26.773Z,99557
2018-05-31T20:30:56.647Z,99561
2018-05-31T20:33:26.371Z,99565
2018-05-31T20:35:56.224Z,99572
2018-05-31T20:38:26.079Z,99569
2018-05-31T20:40:55.953Z,99570
2018-05-31T20:43:25.736Z,99562
2018-05-31T20:45:55.498Z,99567
2018-05-31T20:48:25.286Z,99568
2018-05-31T20:50:55.044Z,99577
2018-05-31T20:53:24.922Z,99576
2018-05-31T20:55:54.715Z,99576
2018-05-31T20:58:24.508Z,99589
2018-05-31T21:00:54.355Z,99588
2018-05-31T21:03:24.210Z,99589
2018-05-31T21:05:54.004Z,99585
2018-05-31T21:08:23.727Z,99587
2018-05-31T21:10:53.524Z,99592
2018-05-31T21:13:23.370Z,99600
2018-05-31T21:15:53.204Z,99598
2018-05-31T21:18:22.977Z,99593
2018-05-31T21:20:52.804Z,99596
2018-05-31T21:23:22.558Z,99589
2018-05-31T21:25:52.332Z,99592
2018-05-31T21:28:22.050Z,99592
2018-05-31T21:30:51.889Z,99586
2018-05-31T21:33:21.707Z,99592
2018-05-31T21:35:51.532Z,99597
2018-05-31T21:38:21.353Z,99597
2018-05-31T21:40:51.135Z,99596
2018-05-31T21:43:21.033Z,99597
2018-05-31T21:45:50.760Z,99594
2018-05-31T21:48:20.503Z,99596
2018-05-31T21:50:50.305Z,99594
2018-05-31T21:53:20.167Z,99590
2018-05-31T21:55:50.006Z,99592
2018-05-31T21:58:19.795Z,99591
2018-05-31T22:00:55.292Z,99591
2018-05-31T22:03:25.116Z,99595
2018-05-31T22:05:54.921Z,99590
2018-05-31T22:08:24.637Z,99589
2018-05-31T22:10:54.415Z,99588
2018-05-31T22:13:24.295Z,99585
2018-05-31T22:15:54.128Z,99590
2018-05-31T22:18:23.928Z,99589
2018-05-31T22:20:53.763Z,99591
2018-05-31T22:23:23.603Z,99588
2018-05-31T22:25:53.333Z,99589
2018-05-31T22:28:23.080Z,99590
2018-05-31T22:30:52.890Z,99589
2018-05-31T22:33:22.677Z,99588
2018-05-31T22:35:52.593Z,99585
2018-05-31T22:38:22.417Z,99585
2018-05-31T22:40:52.188Z,99585
2018-05-31T22:43:22.006Z,99580
2018-05-31T22:45:51.728Z,99570
2018-05-31T22:48:21.546Z,99572
2018-05-31T22:50:51.273Z,99576
2018-05-31T22:53:21.140Z,99571
2018-05-31T22:55:50.962Z,99579
2018-05-31T22:58:20.832Z,99576
2018-05-31T23:00:50.690Z,99577
2018-05-31T23:03:20.493Z,99580
2018-05-31T23:05:50.292Z,99569
2018-05-31T23:08:20.069Z,99569
2018-05-31T23:10:49.928Z,99571
2018-05-31T23:13:19.766Z,99574
2018-05-31T23:15:49.598Z,99572
2018-05-31T23:18:19.358Z,99576
2018-05-31T23:20:49.146Z,99575
2018-05-31T23:23:18.950Z,99575
2018-05-31T23:25:48.702Z,99577
2018-05-31T23:28:18.435Z,99572
2018-05-31T23:30:48.295Z,99570
2018-05-31T23:33:18.034Z,99566
2018-05-31T23:35:47.817Z,99575
2018-05-31T23:38:17.746Z,99573
2018-05-31T23:40:47.547Z,99566
2018-05-31T23:43:17.391Z,99568
2018-05-31T23:45:47.099Z,99571
2018-05-31T23:48:16.810Z,99567
2018-05-31T23:50:46.575Z,99560
2018-05-31T23:53:16.440Z,99565
2018-05-31T23:55:46.301Z,99563
2018-05-31T23:58:16.104Z,99567
